sensor_id;sensor_type;location;lat;lon;timestamp;pressure;altitude;pressure_sealevel;temperature
68440;BMP180;55421;51.600;5.718;2024-03-07T00:00:07;162696.20;;;6.02
68440;BMP180;55421;51.600;5.718;2024-03-07T00:03:01;162695.80;;;6.00
68440;BMP180;55421;51.600;5.718;2024-03-07T00:05:27;162683.20;;;5.90
68440;BMP180;55421;51.600;5.718;2024-03-07T00:07:54;162684.80;;;5.90
68440;BMP180;55421;51.600;5.718;2024-03-07T00:10:21;162708.20;;;5.90
68440;BMP180;55421;51.600;5.718;2024-03-07T00:12:47;162704.20;;;5.90
68440;BMP180;55421;51.600;5.718;2024-03-07T00:15:15;162719.00;;;5.88
68440;BMP180;55421;51.600;5.718;2024-03-07T00:17:42;162722.41;;;5.82
68440;BMP180;55421;51.600;5.718;2024-03-07T00:20:10;162718.00;;;5.80
68440;BMP180;55421;51.600;5.718;2024-03-07T00:22:45;162730.00;;;5.84
68440;BMP180;55421;51.600;5.718;2024-03-07T00:25:12;162743.80;;;5.90
68440;BMP180;55421;51.600;5.718;2024-03-07T00:27:40;162761.80;;;5.90
68440;BMP180;55421;51.600;5.718;2024-03-07T00:30:07;162701.20;;;5.90
68440;BMP180;55421;51.600;5.718;2024-03-07T00:32:39;162777.00;;;5.90
68440;BMP180;55421;51.600;5.718;2024-03-07T00:35:07;162779.00;;;5.90
68440;BMP180;55421;51.600;5.718;2024-03-07T00:37:37;162803.41;;;5.90
68440;BMP180;55421;51.600;5.718;2024-03-07T00:40:04;162793.41;;;5.90
68440;BMP180;55421;51.600;5.718;2024-03-07T00:42:30;162773.00;;;5.90
68440;BMP180;55421;51.600;5.718;2024-03-07T00:44:57;162739.80;;;5.80
68440;BMP180;55421;51.600;5.718;2024-03-07T00:47:24;162721.41;;;5.80
68440;BMP180;55421;51.600;5.718;2024-03-07T00:49:50;162710.00;;;5.80
68440;BMP180;55421;51.600;5.718;2024-03-07T00:52:17;162695.20;;;5.70
68440;BMP180;55421;51.600;5.718;2024-03-07T00:54:43;162674.41;;;5.70
68440;BMP180;55421;51.600;5.718;2024-03-07T00:57:10;162646.80;;;5.60
68440;BMP180;55421;51.600;5.718;2024-03-07T00:59:36;162600.59;;;5.50
68440;BMP180;55421;51.600;5.718;2024-03-07T01:02:03;162564.00;;;5.50
68440;BMP180;55421;51.600;5.718;2024-03-07T01:04:30;162557.20;;;5.46
68440;BMP180;55421;51.600;5.718;2024-03-07T01:06:57;162561.00;;;5.40
68440;BMP180;55421;51.600;5.718;2024-03-07T01:09:25;162529.41;;;5.40
68440;BMP180;55421;51.600;5.718;2024-03-07T01:11:54;162508.80;;;5.34
68440;BMP180;55421;51.600;5.718;2024-03-07T01:14:22;162314.20;;;5.30
68440;BMP180;55421;51.600;5.718;2024-03-07T01:16:49;162417.20;;;5.28
68440;BMP180;55421;51.600;5.718;2024-03-07T01:19:16;162418.00;;;5.20
68440;BMP180;55421;51.600;5.718;2024-03-07T01:21:42;162394.59;;;5.20
68440;BMP180;55421;51.600;5.718;2024-03-07T01:24:09;162344.59;;;5.10
68440;BMP180;55421;51.600;5.718;2024-03-07T01:26:35;162354.20;;;5.10
68440;BMP180;55421;51.600;5.718;2024-03-07T01:29:02;162352.80;;;5.04
68440;BMP180;55421;51.600;5.718;2024-03-07T01:31:29;162359.41;;;5.10
68440;BMP180;55421;51.600;5.718;2024-03-07T01:33:55;162316.20;;;5.00
68440;BMP180;55421;51.600;5.718;2024-03-07T01:36:22;162329.00;;;5.00
68440;BMP180;55421;51.600;5.718;2024-03-07T01:38:48;162301.00;;;5.00
68440;BMP180;55421;51.600;5.718;2024-03-07T01:41:15;162254.41;;;4.90
68440;BMP180;55421;51.600;5.718;2024-03-07T01:43:42;162179.80;;;4.86
68440;BMP180;55421;51.600;5.718;2024-03-07T01:46:10;162214.80;;;4.80
68440;BMP180;55421;51.600;5.718;2024-03-07T01:48:38;162226.41;;;4.80
68440;BMP180;55421;51.600;5.718;2024-03-07T01:51:05;162241.41;;;4.80
68440;BMP180;55421;51.600;5.718;2024-03-07T01:53:33;162189.20;;;4.76
68440;BMP180;55421;51.600;5.718;2024-03-07T01:56:01;162181.20;;;4.70
68440;BMP180;55421;51.600;5.718;2024-03-07T01:58:29;162177.59;;;4.70
68440;BMP180;55421;51.600;5.718;2024-03-07T02:00:59;162204.00;;;4.68
68440;BMP180;55421;51.600;5.718;2024-03-07T02:03:25;162200.20;;;4.60
68440;BMP180;55421;51.600;5.718;2024-03-07T02:05:52;162170.41;;;4.60
68440;BMP180;55421;51.600;5.718;2024-03-07T02:08:19;162136.80;;;4.60
68440;BMP180;55421;51.600;5.718;2024-03-07T02:10:45;162125.41;;;4.52
68440;BMP180;55421;51.600;5.718;2024-03-07T02:13:12;162107.41;;;4.50
68440;BMP180;55421;51.600;5.718;2024-03-07T02:15:39;162124.80;;;4.50
68440;BMP180;55421;51.600;5.718;2024-03-07T02:18:05;162107.59;;;4.50
68440;BMP180;55421;51.600;5.718;2024-03-07T02:20:32;162084.41;;;4.40
68440;BMP180;55421;51.600;5.718;2024-03-07T02:22:59;162098.20;;;4.40
68440;BMP180;55421;51.600;5.718;2024-03-07T02:25:25;162094.00;;;4.40
68440;BMP180;55421;51.600;5.718;2024-03-07T02:27:51;162100.59;;;4.40
68440;BMP180;55421;51.600;5.718;2024-03-07T02:30:18;162087.80;;;4.40
68440;BMP180;55421;51.600;5.718;2024-03-07T02:32:46;162062.80;;;4.30
68440;BMP180;55421;51.600;5.718;2024-03-07T02:35:18;162053.80;;;4.30
68440;BMP180;55421;51.600;5.718;2024-03-07T02:37:45;162029.41;;;4.26
68440;BMP180;55421;51.600;5.718;2024-03-07T02:40:14;162029.00;;;4.22
68440;BMP180;55421;51.600;5.718;2024-03-07T02:42:40;162023.00;;;4.20
68440;BMP180;55421;51.600;5.718;2024-03-07T02:45:07;162007.80;;;4.20
68440;BMP180;55421;51.600;5.718;2024-03-07T02:47:34;161992.00;;;4.18
68440;BMP180;55421;51.600;5.718;2024-03-07T02:50:01;161992.00;;;4.12
68440;BMP180;55421;51.600;5.718;2024-03-07T02:52:27;162004.41;;;4.10
68440;BMP180;55421;51.600;5.718;2024-03-07T02:54:54;162000.00;;;4.10
68440;BMP180;55421;51.600;5.718;2024-03-07T02:57:20;161999.00;;;4.10
68440;BMP180;55421;51.600;5.718;2024-03-07T02:59:47;161970.41;;;4.10
68440;BMP180;55421;51.600;5.718;2024-03-07T03:02:13;161970.00;;;4.00
68440;BMP180;55421;51.600;5.718;2024-03-07T03:04:39;161966.41;;;4.00
68440;BMP180;55421;51.600;5.718;2024-03-07T03:07:06;161961.59;;;4.00
68440;BMP180;55421;51.600;5.718;2024-03-07T03:09:33;161965.80;;;4.00
68440;BMP180;55421;51.600;5.718;2024-03-07T03:12:00;161957.80;;;4.00
68440;BMP180;55421;51.600;5.718;2024-03-07T03:14:27;161942.41;;;4.00
68440;BMP180;55421;51.600;5.718;2024-03-07T03:16:53;161952.00;;;3.94
68440;BMP180;55421;51.600;5.718;2024-03-07T03:19:20;161943.59;;;3.92
68440;BMP180;55421;51.600;5.718;2024-03-07T03:21:47;161930.41;;;3.90
68440;BMP180;55421;51.600;5.718;2024-03-07T03:24:15;161920.41;;;3.90
68440;BMP180;55421;51.600;5.718;2024-03-07T03:26:41;161908.80;;;3.90
68440;BMP180;55421;51.600;5.718;2024-03-07T03:29:08;161903.59;;;3.90
68440;BMP180;55421;51.600;5.718;2024-03-07T03:31:35;161917.59;;;3.90
68440;BMP180;55421;51.600;5.718;2024-03-07T03:34:02;161905.59;;;3.90
68440;BMP180;55421;51.600;5.718;2024-03-07T03:36:29;161899.59;;;3.90
68440;BMP180;55421;51.600;5.718;2024-03-07T03:38:55;161904.80;;;3.90
68440;BMP180;55421;51.600;5.718;2024-03-07T03:41:22;161914.80;;;3.90
68440;BMP180;55421;51.600;5.718;2024-03-07T03:43:49;161916.41;;;3.90
68440;BMP180;55421;51.600;5.718;2024-03-07T03:46:16;161912.41;;;3.90
68440;BMP180;55421;51.600;5.718;2024-03-07T03:48:43;161896.41;;;3.90
68440;BMP180;55421;51.600;5.718;2024-03-07T03:51:10;161882.80;;;3.80
68440;BMP180;55421;51.600;5.718;2024-03-07T03:53:39;161886.41;;;3.80
68440;BMP180;55421;51.600;5.718;2024-03-07T03:56:10;161878.41;;;3.80
68440;BMP180;55421;51.600;5.718;2024-03-07T03:58:40;161869.59;;;3.80
68440;BMP180;55421;51.600;5.718;2024-03-07T04:01:06;161854.80;;;3.72
68440;BMP180;55421;51.600;5.718;2024-03-07T04:03:35;161837.20;;;3.70
68440;BMP180;55421;51.600;5.718;2024-03-07T04:06:01;161833.59;;;3.70
68440;BMP180;55421;51.600;5.718;2024-03-07T04:08:28;161808.20;;;3.70
68440;BMP180;55421;51.600;5.718;2024-03-07T04:10:54;161820.00;;;3.68
68440;BMP180;55421;51.600;5.718;2024-03-07T04:13:21;161806.80;;;3.60
68440;BMP180;55421;51.600;5.718;2024-03-07T04:15:52;161802.59;;;3.60
68440;BMP180;55421;51.600;5.718;2024-03-07T04:18:18;161794.41;;;3.60
68440;BMP180;55421;51.600;5.718;2024-03-07T04:20:46;161797.41;;;3.60
68440;BMP180;55421;51.600;5.718;2024-03-07T04:23:12;161786.59;;;3.60
68440;BMP180;55421;51.600;5.718;2024-03-07T04:25:39;161781.80;;;3.60
68440;BMP180;55421;51.600;5.718;2024-03-07T04:28:05;161777.41;;;3.58
68440;BMP180;55421;51.600;5.718;2024-03-07T04:30:32;161778.20;;;3.60
68440;BMP180;55421;51.600;5.718;2024-03-07T04:32:58;161778.20;;;3.60
68440;BMP180;55421;51.600;5.718;2024-03-07T04:35:25;161773.80;;;3.54
68440;BMP180;55421;51.600;5.718;2024-03-07T04:37:52;161766.59;;;3.52
68440;BMP180;55421;51.600;5.718;2024-03-07T04:40:19;161766.59;;;3.52
68440;BMP180;55421;51.600;5.718;2024-03-07T04:42:48;161769.80;;;3.50
68440;BMP180;55421;51.600;5.718;2024-03-07T04:45:16;161766.59;;;3.50
68440;BMP180;55421;51.600;5.718;2024-03-07T04:47:44;161756.59;;;3.50
68440;BMP180;55421;51.600;5.718;2024-03-07T04:50:13;161723.59;;;3.50
68440;BMP180;55421;51.600;5.718;2024-03-07T04:52:43;161737.00;;;3.48
68440;BMP180;55421;51.600;5.718;2024-03-07T04:55:10;161735.00;;;3.50
68440;BMP180;55421;51.600;5.718;2024-03-07T04:57:38;161732.20;;;3.50
68440;BMP180;55421;51.600;5.718;2024-03-07T05:00:11;161720.59;;;3.40
68440;BMP180;55421;51.600;5.718;2024-03-07T05:02:41;161705.80;;;3.40
68440;BMP180;55421;51.600;5.718;2024-03-07T05:05:08;161692.00;;;3.40
68440;BMP180;55421;51.600;5.718;2024-03-07T05:07:35;161688.41;;;3.40
68440;BMP180;55421;51.600;5.718;2024-03-07T05:10:06;161680.80;;;3.30
68440;BMP180;55421;51.600;5.718;2024-03-07T05:12:33;161670.80;;;3.30
68440;BMP180;55421;51.600;5.718;2024-03-07T05:15:00;161654.80;;;3.30
68440;BMP180;55421;51.600;5.718;2024-03-07T05:17:26;161635.59;;;3.22
68440;BMP180;55421;51.600;5.718;2024-03-07T05:19:55;161630.00;;;3.20
68440;BMP180;55421;51.600;5.718;2024-03-07T05:22:21;161628.80;;;3.20
68440;BMP180;55421;51.600;5.718;2024-03-07T05:24:51;161617.20;;;3.20
68440;BMP180;55421;51.600;5.718;2024-03-07T05:27:18;161606.00;;;3.20
68440;BMP180;55421;51.600;5.718;2024-03-07T05:29:44;161600.41;;;3.16
68440;BMP180;55421;51.600;5.718;2024-03-07T05:34:49;161599.59;;;3.16
68440;BMP180;55421;51.600;5.718;2024-03-07T05:37:15;161582.80;;;3.10
68440;BMP180;55421;51.600;5.718;2024-03-07T05:39:42;161566.80;;;3.10
68440;BMP180;55421;51.600;5.718;2024-03-07T05:42:08;161559.80;;;3.10
68440;BMP180;55421;51.600;5.718;2024-03-07T05:44:38;161557.80;;;3.08
68440;BMP180;55421;51.600;5.718;2024-03-07T05:47:05;161554.20;;;3.04
68440;BMP180;55421;51.600;5.718;2024-03-07T05:49:33;161548.20;;;3.00
68440;BMP180;55421;51.600;5.718;2024-03-07T05:52:00;161531.41;;;3.00
68440;BMP180;55421;51.600;5.718;2024-03-07T05:54:26;161518.20;;;3.00
68440;BMP180;55421;51.600;5.718;2024-03-07T05:56:55;161517.00;;;2.94
68440;BMP180;55421;51.600;5.718;2024-03-07T05:59:22;161517.00;;;3.00
68440;BMP180;55421;51.600;5.718;2024-03-07T06:01:49;161511.80;;;2.90
68440;BMP180;55421;51.600;5.718;2024-03-07T06:04:17;161497.00;;;2.90
68440;BMP180;55421;51.600;5.718;2024-03-07T06:06:43;161489.80;;;2.90
68440;BMP180;55421;51.600;5.718;2024-03-07T06:09:11;161491.41;;;2.90
68440;BMP180;55421;51.600;5.718;2024-03-07T06:11:40;161489.41;;;2.90
68440;BMP180;55421;51.600;5.718;2024-03-07T06:14:10;161479.00;;;2.90
68440;BMP180;55421;51.600;5.718;2024-03-07T06:16:40;161466.00;;;2.80
68440;BMP180;55421;51.600;5.718;2024-03-07T06:19:08;161457.59;;;2.80
68440;BMP180;55421;51.600;5.718;2024-03-07T06:21:36;161460.80;;;2.80
68440;BMP180;55421;51.600;5.718;2024-03-07T06:24:04;161460.00;;;2.80
68440;BMP180;55421;51.600;5.718;2024-03-07T06:26:33;161456.41;;;2.80
68440;BMP180;55421;51.600;5.718;2024-03-07T06:29:18;161454.41;;;2.80
68440;BMP180;55421;51.600;5.718;2024-03-07T06:31:45;161456.80;;;2.80
68440;BMP180;55421;51.600;5.718;2024-03-07T06:34:16;161468.00;;;2.84
68440;BMP180;55421;51.600;5.718;2024-03-07T06:36:44;161472.80;;;2.90
68440;BMP180;55421;51.600;5.718;2024-03-07T06:39:10;161474.80;;;2.90
68440;BMP180;55421;51.600;5.718;2024-03-07T06:41:37;161481.80;;;2.90
68440;BMP180;55421;51.600;5.718;2024-03-07T06:44:04;161497.41;;;2.90
68440;BMP180;55421;51.600;5.718;2024-03-07T06:46:31;161517.00;;;2.94
68440;BMP180;55421;51.600;5.718;2024-03-07T06:48:58;161528.20;;;3.00
68440;BMP180;55421;51.600;5.718;2024-03-07T06:51:25;161542.59;;;3.00
68440;BMP180;55421;51.600;5.718;2024-03-07T06:53:51;161553.41;;;3.04
68440;BMP180;55421;51.600;5.718;2024-03-07T06:56:18;161569.41;;;3.10
68440;BMP180;55421;51.600;5.718;2024-03-07T06:58:44;161584.80;;;3.10
68440;BMP180;55421;51.600;5.718;2024-03-07T07:01:14;161600.41;;;3.14
68440;BMP180;55421;51.600;5.718;2024-03-07T07:03:44;161602.41;;;3.20
68440;BMP180;55421;51.600;5.718;2024-03-07T07:06:12;161618.00;;;3.20
68440;BMP180;55421;51.600;5.718;2024-03-07T07:08:39;161645.20;;;3.30
68440;BMP180;55421;51.600;5.718;2024-03-07T07:11:05;161659.20;;;3.30
68440;BMP180;55421;51.600;5.718;2024-03-07T07:13:32;161669.59;;;3.30
68440;BMP180;55421;51.600;5.718;2024-03-07T07:15:59;161682.00;;;3.34
68440;BMP180;55421;51.600;5.718;2024-03-07T07:18:25;161715.80;;;3.40
68440;BMP180;55421;51.600;5.718;2024-03-07T07:20:52;161737.80;;;3.50
68440;BMP180;55421;51.600;5.718;2024-03-07T07:23:19;161760.59;;;3.50
68440;BMP180;55421;51.600;5.718;2024-03-07T07:25:46;161769.00;;;3.54
68440;BMP180;55421;51.600;5.718;2024-03-07T07:28:13;161782.20;;;3.60
68440;BMP180;55421;51.600;5.718;2024-03-07T07:30:42;161806.41;;;3.60
68440;BMP180;55421;51.600;5.718;2024-03-07T07:33:09;161824.41;;;3.70
68440;BMP180;55421;51.600;5.718;2024-03-07T07:35:35;161834.00;;;3.70
68440;BMP180;55421;51.600;5.718;2024-03-07T07:38:02;161855.59;;;3.70
68440;BMP180;55421;51.600;5.718;2024-03-07T07:40:28;161878.41;;;3.80
68440;BMP180;55421;51.600;5.718;2024-03-07T07:42:57;161900.80;;;3.90
68440;BMP180;55421;51.600;5.718;2024-03-07T07:45:24;161923.59;;;3.90
68440;BMP180;55421;51.600;5.718;2024-03-07T07:47:52;161946.41;;;3.92
68440;BMP180;55421;51.600;5.718;2024-03-07T07:50:24;161964.59;;;4.00
68440;BMP180;55421;51.600;5.718;2024-03-07T07:52:54;161986.59;;;4.08
68440;BMP180;55421;51.600;5.718;2024-03-07T07:55:25;162005.00;;;4.10
68440;BMP180;55421;51.600;5.718;2024-03-07T07:57:56;162023.41;;;4.12
68440;BMP180;55421;51.600;5.718;2024-03-07T08:00:25;162045.59;;;4.20
68440;BMP180;55421;51.600;5.718;2024-03-07T08:03:01;162062.00;;;4.20
68440;BMP180;55421;51.600;5.718;2024-03-07T08:05:30;162082.00;;;4.30
68440;BMP180;55421;51.600;5.718;2024-03-07T08:08:03;162100.80;;;4.30
68440;BMP180;55421;51.600;5.718;2024-03-07T08:10:33;162115.20;;;4.34
68440;BMP180;55421;51.600;5.718;2024-03-07T08:13:02;162147.20;;;4.40
68440;BMP180;55421;51.600;5.718;2024-03-07T08:15:30;162176.59;;;4.50
68440;BMP180;55421;51.600;5.718;2024-03-07T08:17:58;162197.41;;;4.50
68440;BMP180;55421;51.600;5.718;2024-03-07T08:20:27;162224.59;;;4.60
68440;BMP180;55421;51.600;5.718;2024-03-07T08:22:55;162245.41;;;4.62
68440;BMP180;55421;51.600;5.718;2024-03-07T08:25:25;162266.59;;;4.70
68440;BMP180;55421;51.600;5.718;2024-03-07T08:27:54;162281.41;;;4.72
68440;BMP180;55421;51.600;5.718;2024-03-07T08:30:21;162300.59;;;4.80
68440;BMP180;55421;51.600;5.718;2024-03-07T08:32:51;162315.59;;;4.80
68440;BMP180;55421;51.600;5.718;2024-03-07T08:35:19;162325.59;;;4.80
68440;BMP180;55421;51.600;5.718;2024-03-07T08:37:48;162350.00;;;4.90
68440;BMP180;55421;51.600;5.718;2024-03-07T08:40:30;162381.59;;;5.00
68440;BMP180;55421;51.600;5.718;2024-03-07T08:42:59;162406.00;;;5.00
68440;BMP180;55421;51.600;5.718;2024-03-07T08:45:28;162427.80;;;5.10
68440;BMP180;55421;51.600;5.718;2024-03-07T08:47:56;162440.20;;;5.10
68440;BMP180;55421;51.600;5.718;2024-03-07T08:50:24;162459.80;;;5.20
68440;BMP180;55421;51.600;5.718;2024-03-07T08:52:52;162493.80;;;5.20
68440;BMP180;55421;51.600;5.718;2024-03-07T08:55:23;162511.80;;;5.30
68440;BMP180;55421;51.600;5.718;2024-03-07T08:57:51;162529.41;;;5.30
68440;BMP180;55421;51.600;5.718;2024-03-07T09:00:19;162548.59;;;5.34
68440;BMP180;55421;51.600;5.718;2024-03-07T09:02:57;162575.20;;;5.40
68440;BMP180;55421;51.600;5.718;2024-03-07T09:05:25;162519.20;;;5.50
68440;BMP180;55421;51.600;5.718;2024-03-07T09:07:54;162543.00;;;5.50
68440;BMP180;55421;51.600;5.718;2024-03-07T09:10:20;162597.41;;;5.54
68440;BMP180;55421;51.600;5.718;2024-03-07T09:12:51;162616.20;;;5.60
68440;BMP180;55421;51.600;5.718;2024-03-07T09:15:18;162608.59;;;5.70
68440;BMP180;55421;51.600;5.718;2024-03-07T09:17:47;162567.20;;;5.74
68440;BMP180;55421;51.600;5.718;2024-03-07T09:20:14;162263.80;;;5.80
68440;BMP180;55421;51.600;5.718;2024-03-07T09:22:45;162091.00;;;5.80
68440;BMP180;55421;51.600;5.718;2024-03-07T09:25:11;162102.59;;;5.80
68440;BMP180;55421;51.600;5.718;2024-03-07T09:27:40;161867.41;;;5.82
68440;BMP180;55421;51.600;5.718;2024-03-07T09:30:08;161119.00;;;5.90
68440;BMP180;55421;51.600;5.718;2024-03-07T09:32:42;161320.00;;;5.90
68440;BMP180;55421;51.600;5.718;2024-03-07T09:35:10;161380.41;;;6.00
68440;BMP180;55421;51.600;5.718;2024-03-07T09:37:41;161120.41;;;6.10
68440;BMP180;55421;51.600;5.718;2024-03-07T09:40:09;160613.80;;;6.10
68440;BMP180;55421;51.600;5.718;2024-03-07T09:42:46;160420.59;;;6.10
68440;BMP180;55421;51.600;5.718;2024-03-07T09:45:17;159413.20;;;6.10
68440;BMP180;55421;51.600;5.718;2024-03-07T09:47:49;159291.80;;;6.20
68440;BMP180;55421;51.600;5.718;2024-03-07T09:50:19;159241.80;;;6.20
68440;BMP180;55421;51.600;5.718;2024-03-07T09:52:49;158999.80;;;6.30
68440;BMP180;55421;51.600;5.718;2024-03-07T09:55:17;157888.00;;;6.30
68440;BMP180;55421;51.600;5.718;2024-03-07T09:57:47;157988.41;;;6.30
68440;BMP180;55421;51.600;5.718;2024-03-07T10:00:17;157571.59;;;6.40
68440;BMP180;55421;51.600;5.718;2024-03-07T10:03:01;157573.80;;;6.50
68440;BMP180;55421;51.600;5.718;2024-03-07T10:05:30;157368.41;;;6.60
68440;BMP180;55421;51.600;5.718;2024-03-07T10:07:59;156451.41;;;6.60
68440;BMP180;55421;51.600;5.718;2024-03-07T10:10:26;156017.00;;;6.70
68440;BMP180;55421;51.600;5.718;2024-03-07T10:12:52;155505.20;;;6.70
68440;BMP180;55421;51.600;5.718;2024-03-07T10:15:32;156271.80;;;6.70
68440;BMP180;55421;51.600;5.718;2024-03-07T10:18:00;156164.80;;;6.80
68440;BMP180;55421;51.600;5.718;2024-03-07T10:20:27;155392.20;;;6.80
68440;BMP180;55421;51.600;5.718;2024-03-07T10:22:54;155973.20;;;6.92
68440;BMP180;55421;51.600;5.718;2024-03-07T10:25:22;155470.59;;;7.04
68440;BMP180;55421;51.600;5.718;2024-03-07T10:27:51;154005.20;;;7.10
68440;BMP180;55421;51.600;5.718;2024-03-07T10:30:19;154030.41;;;7.10
68440;BMP180;55421;51.600;5.718;2024-03-07T10:32:57;153376.41;;;7.20
68440;BMP180;55421;51.600;5.718;2024-03-07T10:35:24;152509.41;;;7.20
68440;BMP180;55421;51.600;5.718;2024-03-07T10:37:55;151553.80;;;7.20
68440;BMP180;55421;51.600;5.718;2024-03-07T10:40:23;151724.59;;;7.30
68440;BMP180;55421;51.600;5.718;2024-03-07T10:42:57;150696.00;;;7.30
68440;BMP180;55421;51.600;5.718;2024-03-07T10:45:28;150135.59;;;7.30
68440;BMP180;55421;51.600;5.718;2024-03-07T10:47:58;149142.20;;;7.40
68440;BMP180;55421;51.600;5.718;2024-03-07T10:53:24;149414.20;;;7.50
68440;BMP180;55421;51.600;5.718;2024-03-07T10:59:17;149043.20;;;7.70
68440;BMP180;55421;51.600;5.718;2024-03-07T11:01:57;147741.00;;;7.78
68440;BMP180;55421;51.600;5.718;2024-03-07T11:04:26;146367.41;;;7.90
68440;BMP180;55421;51.600;5.718;2024-03-07T11:06:53;146248.00;;;7.90
68440;BMP180;55421;51.600;5.718;2024-03-07T11:09:21;143788.20;;;8.00
68440;BMP180;55421;51.600;5.718;2024-03-07T11:11:57;143824.41;;;8.04
68440;BMP180;55421;51.600;5.718;2024-03-07T11:14:27;144023.41;;;8.10
68440;BMP180;55421;51.600;5.718;2024-03-07T11:16:54;143317.59;;;8.10
68440;BMP180;55421;51.600;5.718;2024-03-07T11:19:47;143033.59;;;8.06
68440;BMP180;55421;51.600;5.718;2024-03-07T11:22:31;141831.80;;;8.00
68440;BMP180;55421;51.600;5.718;2024-03-07T11:25:05;141360.80;;;7.90
68440;BMP180;55421;51.600;5.718;2024-03-07T11:27:37;142715.00;;;7.90
68440;BMP180;55421;51.600;5.718;2024-03-07T11:30:11;140992.59;;;7.84
68440;BMP180;55421;51.600;5.718;2024-03-07T11:32:38;141425.20;;;7.80
68440;BMP180;55421;51.600;5.718;2024-03-07T11:35:11;141718.00;;;7.70
68440;BMP180;55421;51.600;5.718;2024-03-07T11:37:43;142139.80;;;7.60
68440;BMP180;55421;51.600;5.718;2024-03-07T11:40:13;143128.59;;;7.60
68440;BMP180;55421;51.600;5.718;2024-03-07T11:42:49;143864.59;;;7.60
68440;BMP180;55421;51.600;5.718;2024-03-07T11:45:17;145028.59;;;7.60
68440;BMP180;55421;51.600;5.718;2024-03-07T11:47:57;144212.80;;;7.70
68440;BMP180;55421;51.600;5.718;2024-03-07T11:50:26;145354.20;;;7.70
68440;BMP180;55421;51.600;5.718;2024-03-07T11:52:54;144885.41;;;7.70
68440;BMP180;55421;51.600;5.718;2024-03-07T11:55:22;144130.20;;;7.62
68440;BMP180;55421;51.600;5.718;2024-03-07T11:57:50;143953.80;;;7.60
68440;BMP180;55421;51.600;5.718;2024-03-07T12:00:20;144971.80;;;7.60
68440;BMP180;55421;51.600;5.718;2024-03-07T12:02:54;143195.00;;;7.60
68440;BMP180;55421;51.600;5.718;2024-03-07T12:05:21;145136.41;;;7.80
68440;BMP180;55421;51.600;5.718;2024-03-07T12:07:47;144683.00;;;7.90
68440;BMP180;55421;51.600;5.718;2024-03-07T12:10:16;143006.00;;;7.90
68440;BMP180;55421;51.600;5.718;2024-03-07T12:12:51;142407.41;;;7.88
68440;BMP180;55421;51.600;5.718;2024-03-07T12:15:17;140963.00;;;7.80
68440;BMP180;55421;51.600;5.718;2024-03-07T12:17:48;140999.20;;;7.70
68440;BMP180;55421;51.600;5.718;2024-03-07T12:20:19;140345.80;;;7.70
68440;BMP180;55421;51.600;5.718;2024-03-07T12:23:00;141404.00;;;7.60
68440;BMP180;55421;51.600;5.718;2024-03-07T12:25:32;142201.41;;;7.60
68440;BMP180;55421;51.600;5.718;2024-03-07T12:28:04;143008.20;;;7.70
68440;BMP180;55421;51.600;5.718;2024-03-07T12:33:13;143388.20;;;7.98
68440;BMP180;55421;51.600;5.718;2024-03-07T12:35:48;143145.00;;;8.00
68440;BMP180;55421;51.600;5.718;2024-03-07T12:38:21;144006.41;;;8.20
68440;BMP180;55421;51.600;5.718;2024-03-07T12:41:04;143618.00;;;8.30
68440;BMP180;55421;51.600;5.718;2024-03-07T12:43:32;143973.00;;;8.30
68440;BMP180;55421;51.600;5.718;2024-03-07T12:45:59;143301.41;;;8.30
68440;BMP180;55421;51.600;5.718;2024-03-07T12:48:25;141493.41;;;8.20
68440;BMP180;55421;51.600;5.718;2024-03-07T12:50:52;140330.59;;;8.10
68440;BMP180;55421;51.600;5.718;2024-03-07T12:53:23;139579.59;;;8.10
68440;BMP180;55421;51.600;5.718;2024-03-07T12:55:52;138825.80;;;8.00
68440;BMP180;55421;51.600;5.718;2024-03-07T12:58:18;139016.59;;;8.10
68440;BMP180;55421;51.600;5.718;2024-03-07T13:00:46;140016.00;;;8.20
68440;BMP180;55421;51.600;5.718;2024-03-07T13:03:13;140718.20;;;8.40
68440;BMP180;55421;51.600;5.718;2024-03-07T13:05:42;139801.20;;;8.40
68440;BMP180;55421;51.600;5.718;2024-03-07T13:08:10;139255.41;;;8.50
68440;BMP180;55421;51.600;5.718;2024-03-07T13:10:40;137810.59;;;8.50
68440;BMP180;55421;51.600;5.718;2024-03-07T13:13:09;137766.80;;;8.52
68440;BMP180;55421;51.600;5.718;2024-03-07T13:15:38;137889.80;;;8.68
68440;BMP180;55421;51.600;5.718;2024-03-07T13:18:05;137858.20;;;8.70
68440;BMP180;55421;51.600;5.718;2024-03-07T13:20:32;137101.59;;;8.76
68440;BMP180;55421;51.600;5.718;2024-03-07T13:22:59;136453.41;;;8.80
68440;BMP180;55421;51.600;5.718;2024-03-07T13:25:28;136222.20;;;8.80
68440;BMP180;55421;51.600;5.718;2024-03-07T13:28:03;138726.80;;;8.80
68440;BMP180;55421;51.600;5.718;2024-03-07T13:30:35;137566.00;;;8.80
68440;BMP180;55421;51.600;5.718;2024-03-07T13:33:04;138360.59;;;8.80
68440;BMP180;55421;51.600;5.718;2024-03-07T13:35:32;139483.59;;;8.90
68440;BMP180;55421;51.600;5.718;2024-03-07T13:37:58;139871.00;;;8.90
68440;BMP180;55421;51.600;5.718;2024-03-07T13:40:26;139662.80;;;8.80
68440;BMP180;55421;51.600;5.718;2024-03-07T13:43:00;139130.41;;;8.80
68440;BMP180;55421;51.600;5.718;2024-03-07T13:45:30;139197.80;;;8.70
68440;BMP180;55421;51.600;5.718;2024-03-07T13:48:15;139098.80;;;8.62
68440;BMP180;55421;51.600;5.718;2024-03-07T13:50:43;140184.20;;;8.60
68440;BMP180;55421;51.600;5.718;2024-03-07T13:53:16;140174.59;;;8.50
68440;BMP180;55421;51.600;5.718;2024-03-07T13:56:22;139886.20;;;8.40
68440;BMP180;55421;51.600;5.718;2024-03-07T14:14:38;143960.20;;;8.50
68440;BMP180;55421;51.600;5.718;2024-03-07T14:20:51;145124.80;;;8.44
68440;BMP180;55421;51.600;5.718;2024-03-07T14:23:45;145809.80;;;8.50
68440;BMP180;55421;51.600;5.718;2024-03-07T14:32:24;148240.80;;;8.30
68440;BMP180;55421;51.600;5.718;2024-03-07T14:35:18;148900.80;;;8.30
68440;BMP180;55421;51.600;5.718;2024-03-07T14:40:40;149315.00;;;8.40
68440;BMP180;55421;51.600;5.718;2024-03-07T14:43:07;147554.20;;;8.38
68440;BMP180;55421;51.600;5.718;2024-03-07T14:45:39;147623.00;;;8.30
68440;BMP180;55421;51.600;5.718;2024-03-07T14:48:08;148275.59;;;8.30
68440;BMP180;55421;51.600;5.718;2024-03-07T14:50:38;148659.80;;;8.30
68440;BMP180;55421;51.600;5.718;2024-03-07T14:53:07;149409.00;;;8.30
68440;BMP180;55421;51.600;5.718;2024-03-07T14:55:36;148644.59;;;8.30
68440;BMP180;55421;51.600;5.718;2024-03-07T14:58:03;148755.80;;;8.20